Time;durP1;ratioP1;P1;durP2;ratioP2;P2;SDS_P1;SDS_P2;PMS_P1;PMS_P2;Temp;Humidity;BMP_temperature;BMP_pressure;BME280_temperature;BME280_humidity;BME280_pressure;Samples;Min_cycle;Max_cycle;Signal;HPM_P1;HPM_P2
2022/12/20 00:01:41;;;;;;;21.13;13.70;;;;;;;2.38;65.41;101771.59;5072060;28;20196;-55
2022/12/20 00:04:11;;;;;;;15.93;11.47;;;;;;;2.37;65.87;101772.34;5071616;28;20188;-55
2022/12/20 00:06:38;;;;;;;17.03;11.60;;;;;;;2.23;65.03;101748.34;5071590;28;20271;-55
2022/12/20 00:09:07;;;;;;;16.53;11.33;;;;;;;2.32;65.57;101776.13;5072042;28;20180;-55
2022/12/20 00:11:35;;;;;;;17.70;11.80;;;;;;;2.30;65.53;101777.66;5070897;28;20184;-55
2022/12/20 00:14:02;;;;;;;34.30;17.60;;;;;;;2.31;65.73;101771.81;5071363;28;20184;-55
2022/12/20 00:16:29;;;;;;;25.30;14.53;;;;;;;2.31;65.88;101772.69;5071421;28;20666;-55
2022/12/20 00:18:58;;;;;;;19.73;12.90;;;;;;;2.32;66.03;101768.53;5071613;28;20608;-55
2022/12/20 00:21:27;;;;;;;21.80;14.30;;;;;;;2.22;65.63;101771.94;5066815;28;20196;-56
2022/12/20 00:23:55;;;;;;;24.43;14.90;;;;;;;2.11;66.18;101765.06;5072320;28;20187;-56
2022/12/20 00:26:24;;;;;;;22.13;13.90;;;;;;;2.08;66.65;101758.81;5074439;28;20211;-56
2022/12/20 00:28:51;;;;;;;20.27;12.70;;;;;;;2.15;66.64;101766.19;5070209;28;20187;-56
2022/12/20 00:31:20;;;;;;;21.10;12.67;;;;;;;2.14;66.51;101770.38;5072481;28;20225;-55
2022/12/20 00:33:49;;;;;;;15.73;11.70;;;;;;;2.09;66.71;101758.94;5074659;28;20184;-55
2022/12/20 00:36:17;;;;;;;18.40;13.50;;;;;;;2.06;67.53;101761.22;5072987;28;20194;-56
2022/12/20 00:38:46;;;;;;;16.67;12.27;;;;;;;1.88;67.98;101746.06;5074088;28;20184;-56
2022/12/20 00:41:15;;;;;;;19.53;12.37;;;;;;;1.72;69.35;101741.34;5074058;28;20206;-55
2022/12/20 00:43:42;;;;;;;19.10;12.60;;;;;;;1.85;70.58;101778.75;5074322;28;20179;-55
2022/12/20 00:46:15;;;;;;;24.13;14.57;;;;;;;1.77;71.72;101776.44;5074091;28;20282;-56
2022/12/20 00:48:42;;;;;;;22.13;15.00;;;;;;;1.63;72.92;101760.78;5074652;28;20184;-55
2022/12/20 00:51:11;;;;;;;25.57;15.97;;;;;;;1.60;74.60;101768.13;5068881;28;20634;-55
2022/12/20 00:53:39;;;;;;;27.37;17.47;;;;;;;1.48;76.01;101770.50;5074562;28;20191;-56
2022/12/20 00:56:08;;;;;;;24.13;16.20;;;;;;;1.29;77.04;101764.56;5075171;28;20183;-55
2022/12/20 00:58:37;;;;;;;26.53;15.23;;;;;;;1.29;77.92;101763.66;5074683;28;20573;-55
2022/12/20 01:01:04;;;;;;;22.43;15.50;;;;;;;1.23;78.50;101758.94;5072155;28;20191;-55
2022/12/20 01:03:31;;;;;;;22.27;15.17;;;;;;;1.12;79.11;101757.09;5074575;28;20316;-55
2022/12/20 01:06:00;;;;;;;25.67;16.10;;;;;;;0.99;80.04;101759.28;5074760;28;20238;-56
2022/12/20 01:08:30;;;;;;;21.70;14.90;;;;;;;0.87;80.42;101758.16;5073755;28;20187;-55
2022/12/20 01:11:00;;;;;;;22.80;14.70;;;;;;;0.78;81.47;101753.16;5061202;28;20204;-56
2022/12/20 01:13:29;;;;;;;26.17;14.53;;;;;;;0.43;82.63;101749.94;5065423;28;20187;-55
2022/12/20 01:15:56;;;;;;;26.27;15.53;;;;;;;0.54;82.94;101754.34;5074085;28;20191;-55
2022/12/20 01:18:23;;;;;;;26.10;14.40;;;;;;;0.57;82.36;101738.56;5064758;28;20192;-55
2022/12/20 01:20:50;;;;;;;19.60;13.50;;;;;;;0.54;82.19;101745.88;5064233;28;20745;-55
2022/12/20 01:23:16;;;;;;;20.83;14.13;;;;;;;0.53;82.92;101750.03;5073177;28;20260;-56
2022/12/20 01:25:43;;;;;;;19.67;12.47;;;;;;;0.49;82.22;101732.81;5071836;28;20212;-56
2022/12/20 01:28:10;;;;;;;20.37;13.13;;;;;;;0.34;82.57;101712.81;5071570;28;20304;-56
2022/12/20 01:30:42;;;;;;;22.17;13.37;;;;;;;0.47;82.84;101726.69;5071645;28;20195;-55
2022/12/20 01:33:08;;;;;;;20.37;14.03;;;;;;;0.48;83.07;101725.06;5071379;28;20670;-55
2022/12/20 01:35:35;;;;;;;18.87;12.73;;;;;;;0.42;83.34;101721.97;5071583;28;20183;-57
2022/12/20 01:38:02;;;;;;;18.53;12.63;;;;;;;0.39;82.61;101714.09;5067877;28;20226;-54
2022/12/20 01:40:29;;;;;;;20.43;13.10;;;;;;;0.36;82.16;101703.72;5054013;28;20184;-55
2022/12/20 01:42:55;;;;;;;19.43;13.73;;;;;;;0.38;82.72;101708.19;5053762;28;20242;-55
2022/12/20 01:45:28;;;;;;;19.17;12.13;;;;;;;0.29;82.09;101702.28;5053653;28;20208;-55
2022/12/20 01:47:59;;;;;;;22.17;13.67;;;;;;;0.21;82.33;101705.75;5053730;28;20184;-56
2022/12/20 01:50:26;;;;;;;18.77;13.13;;;;;;;0.23;83.61;101705.88;5053724;28;20188;-55
2022/12/20 01:52:53;;;;;;;19.77;13.30;;;;;;;0.12;82.91;101676.19;5053655;28;20638;-55
2022/12/20 01:55:23;;;;;;;18.33;12.60;;;;;;;0.27;82.78;101693.69;5053938;28;20192;-55
2022/12/20 01:57:55;;;;;;;23.23;14.03;;;;;;;0.31;81.75;101697.34;5053511;28;20191;-55
2022/12/20 02:00:23;;;;;;;21.60;13.97;;;;;;;0.27;82.75;101695.31;5053574;28;20184;-55
2022/12/20 02:02:50;;;;;;;22.57;13.40;;;;;;;0.22;81.87;101699.06;5053245;28;20188;-55
2022/12/20 02:05:21;;;;;;;21.17;13.83;;;;;;;0.29;82.30;101698.84;5053722;28;20212;-55
2022/12/20 02:07:51;;;;;;;21.20;13.40;;;;;;;0.29;82.26;101692.16;5053482;28;20188;-55
2022/12/20 02:10:20;;;;;;;18.90;13.77;;;;;;;0.28;82.12;101687.84;5053251;28;20242;-55
2022/12/20 02:12:51;;;;;;;20.43;13.80;;;;;;;0.26;81.68;101689.34;5053235;28;20191;-55
2022/12/20 02:15:35;;;;;;;21.70;14.00;;;;;;;0.26;81.49;101686.81;5054023;28;20184;-55
2022/12/20 02:18:17;;;;;;;21.00;13.33;;;;;;;0.21;82.22;101679.56;5053609;28;20187;-55
2022/12/20 02:21:11;;;;;;;20.43;13.10;;;;;;;0.27;81.88;101672.56;5053168;28;20192;-55
2022/12/20 02:24:17;;;;;;;21.23;13.57;;;;;;;0.31;82.81;101675.50;5072599;28;20604;-55
2022/12/20 02:27:11;;;;;;;19.23;12.23;;;;;;;0.41;81.97;101674.72;5073135;28;20242;-55
2022/12/20 02:29:43;;;;;;;19.37;13.10;;;;;;;0.49;82.09;101678.81;5070732;28;20191;-55
2022/12/20 02:32:16;;;;;;;22.03;13.63;;;;;;;0.52;81.42;101687.53;5073521;28;20257;-55
2022/12/20 02:34:44;;;;;;;22.90;13.83;;;;;;;0.54;80.73;101685.16;5072867;28;20249;-56
2022/12/20 02:37:11;;;;;;;20.33;13.33;;;;;;;0.56;79.89;101684.56;5072790;28;20188;-56
2022/12/20 02:39:39;;;;;;;21.60;13.37;;;;;;;0.62;78.78;101680.78;5062904;28;20651;-56
2022/12/20 02:42:09;;;;;;;20.03;12.97;;;;;;;0.62;78.08;101676.63;5072654;28;20266;-56
2022/12/20 02:47:30;;;;;;;19.20;12.90;;;;;;;0.47;76.97;101676.13;5072519;28;20233;-55
2022/12/20 02:49:58;;;;;;;27.07;13.60;;;;;;;0.46;77.21;101678.53;5072535;28;20190;-55
2022/12/20 02:52:29;;;;;;;24.33;15.10;;;;;;;0.39;76.59;101682.13;5072469;28;20183;-55
2022/12/20 02:54:57;;;;;;;22.43;13.60;;;;;;;0.36;77.17;101669.22;5072446;28;20542;-56
2022/12/20 02:57:29;;;;;;;18.90;13.07;;;;;;;0.31;77.51;101667.00;5068160;28;20199;-56
2022/12/20 03:00:02;;;;;;;21.43;13.47;;;;;;;0.29;77.67;101671.94;5066229;28;20202;-55
2022/12/20 03:03:21;;;;;;;18.57;12.30;;;;;;;0.18;76.69;101669.19;5072462;28;20283;-55
2022/12/20 03:05:21;;;;;;;18.37;12.27;;;;;;;0.22;77.39;101673.78;5072266;28;20638;-55
2022/12/20 03:07:48;;;;;;;22.37;13.60;;;;;;;0.27;77.11;101672.56;5070794;28;20183;-55
2022/12/20 03:10:15;;;;;;;22.97;13.57;;;;;;;0.28;77.64;101666.72;5072744;28;20203;-56
2022/12/20 03:12:42;;;;;;;22.67;13.77;;;;;;;0.31;77.97;101657.78;5072395;28;20261;-55
2022/12/20 03:15:10;;;;;;;19.43;13.77;;;;;;;0.27;77.02;101659.91;5072172;28;20188;-55
2022/12/20 03:17:38;;;;;;;21.17;12.93;;;;;;;0.34;77.05;101663.13;5072198;28;20190;-55
2022/12/20 03:20:06;;;;;;;21.47;14.23;;;;;;;0.33;76.97;101660.47;5071963;28;20692;-55
2022/12/20 03:22:33;;;;;;;24.25;13.68;;;;;;;0.33;77.61;101648.69;5071541;28;20403;-56
2022/12/20 03:25:00;;;;;;;24.20;15.10;;;;;;;0.43;77.91;101652.97;5072236;28;20184;-55
2022/12/20 03:27:27;;;;;;;26.67;15.87;;;;;;;0.42;78.53;101654.59;5071399;28;20238;-56
2022/12/20 03:29:54;;;;;;;25.17;15.53;;;;;;;0.11;78.29;101601.13;5055763;28;20278;-55
2022/12/20 03:32:22;;;;;;;26.93;16.50;;;;;;;0.38;79.07;101642.44;5051664;28;20184;-55
2022/12/20 03:34:50;;;;;;;25.70;15.83;;;;;;;0.56;79.05;101658.38;5052052;28;20191;-55
2022/12/20 03:37:16;;;;;;;28.80;16.13;;;;;;;0.35;79.12;101651.38;5051749;28;20196;-55
2022/12/20 03:39:43;;;;;;;27.27;17.80;;;;;;;0.41;79.48;101667.97;5051649;28;20427;-55
2022/12/20 03:42:10;;;;;;;27.80;18.13;;;;;;;0.50;79.20;101662.88;5052133;28;20184;-55
2022/12/20 03:44:37;;;;;;;27.63;15.57;;;;;;;0.50;78.62;101672.97;5051882;28;20188;-55
2022/12/20 03:47:04;;;;;;;28.10;16.07;;;;;;;0.49;79.02;101676.28;5051624;28;20285;-55
2022/12/20 03:49:31;;;;;;;26.13;16.47;;;;;;;0.51;78.81;101672.25;5064482;28;20210;-55
2022/12/20 03:51:59;;;;;;;22.63;15.30;;;;;;;0.50;78.55;101661.25;5071408;28;20187;-55
2022/12/20 03:54:26;;;;;;;25.20;15.33;;;;;;;0.45;79.04;101676.75;5052047;28;20188;-55
2022/12/20 03:56:52;;;;;;;24.43;15.43;;;;;;;0.47;78.82;101678.66;5055286;28;20188;-55
2022/12/20 03:59:19;;;;;;;20.97;15.43;;;;;;;0.40;78.97;101675.44;5055807;28;20188;-55
2022/12/20 04:01:46;;;;;;;24.47;15.97;;;;;;;0.41;78.60;101677.22;5055762;28;20246;-55
2022/12/20 04:04:14;;;;;;;27.07;15.30;;;;;;;0.42;78.60;101672.31;5055701;28;20631;-55
2022/12/20 04:06:41;;;;;;;25.53;15.77;;;;;;;0.44;78.80;101673.31;5055697;28;20280;-56
2022/12/20 04:09:09;;;;;;;24.97;16.07;;;;;;;0.35;78.69;101666.56;5055511;28;20184;-55
2022/12/20 04:11:36;;;;;;;24.33;14.43;;;;;;;0.35;78.92;101667.44;5055878;28;20188;-55
2022/12/20 04:14:03;;;;;;;25.70;14.57;;;;;;;0.32;79.33;101678.91;5055458;28;20595;-55
2022/12/20 04:16:30;;;;;;;25.93;16.40;;;;;;;0.30;78.38;101683.81;5055252;28;20188;-54
2022/12/20 04:18:56;;;;;;;22.63;15.73;;;;;;;0.35;77.57;101674.13;5055409;28;20184;-54
2022/12/20 04:21:25;;;;;;;25.50;15.67;;;;;;;0.35;77.27;101676.66;5074229;28;20187;-55
2022/12/20 04:23:52;;;;;;;22.43;14.90;;;;;;;0.35;76.97;101677.56;5075292;28;20188;-55
2022/12/20 04:26:21;;;;;;;25.20;15.40;;;;;;;0.36;76.69;101671.72;5075140;28;20211;-55
2022/12/20 04:28:48;;;;;;;29.07;15.93;;;;;;;0.44;76.37;101669.94;5075388;28;20558;-56
2022/12/20 04:31:14;;;;;;;22.40;15.40;;;;;;;0.45;76.58;101680.16;5068524;28;20203;-55
2022/12/20 04:33:42;;;;;;;23.67;16.60;;;;;;;0.52;76.82;101679.09;5075311;28;20547;-55
2022/12/20 04:36:09;;;;;;;23.93;16.17;;;;;;;0.53;76.36;101683.38;5075611;28;20275;-55
2022/12/20 04:38:36;;;;;;;23.63;15.50;;;;;;;0.39;76.00;101644.19;5075040;28;20191;-55
2022/12/20 04:41:03;;;;;;;28.08;16.67;;;;;;;0.63;75.80;101675.00;5074769;28;20487;-55
2022/12/20 04:43:31;;;;;;;25.83;15.73;;;;;;;0.55;75.50;101672.66;5074940;28;20191;-55
2022/12/20 04:45:58;;;;;;;21.67;15.37;;;;;;;0.60;75.51;101673.09;5074877;28;20192;-55
2022/12/20 04:48:26;;;;;;;26.73;16.23;;;;;;;0.58;76.19;101675.47;5074690;28;20638;-55
2022/12/20 04:50:54;;;;;;;22.30;14.93;;;;;;;0.52;76.18;101671.50;5074745;28;20183;-55
2022/12/20 04:56:16;;;;;;;24.73;15.93;;;;;;;0.49;76.53;101669.59;5050379;28;20202;-55
2022/12/20 04:58:45;;;;;;;33.05;22.10;;;;;;;0.52;76.99;101657.19;5073906;28;20426;-55
2022/12/20 05:01:12;;;;;;;29.80;19.43;;;;;;;0.55;77.20;101664.16;5074732;28;20257;-55
2022/12/20 05:03:39;;;;;;;29.77;17.57;;;;;;;0.61;77.20;101667.25;5074642;28;20249;-55
2022/12/20 05:06:07;;;;;;;29.70;18.50;;;;;;;0.67;76.97;101666.91;5074465;28;20211;-55
2022/12/20 05:08:34;;;;;;;30.33;17.80;;;;;;;0.64;77.29;101648.94;5074041;28;20523;-56
2022/12/20 05:11:01;;;;;;;27.57;17.63;;;;;;;0.66;77.55;101666.03;5074253;28;20195;-56
2022/12/20 05:13:28;;;;;;;31.07;18.17;;;;;;;0.68;77.18;101654.44;5074674;28;20195;-55
2022/12/20 05:15:56;;;;;;;27.00;17.40;;;;;;;0.70;76.61;101659.59;5074462;28;20187;-55
2022/12/20 05:18:24;;;;;;;25.67;16.27;;;;;;;0.57;76.56;101629.81;5074173;28;20191;-55
2022/12/20 05:26:16;;;;;;;30.10;18.10;;;;;;;0.66;76.02;101655.03;5074235;28;20184;-55
2022/12/20 05:26:30;;;;;;;30.70;17.23;;;;;;;0.69;76.37;101650.25;5073974;28;20214;-54
2022/12/20 05:28:57;;;;;;;28.50;17.27;;;;;;;0.68;76.43;101658.59;5073893;28;20194;-55
2022/12/20 05:31:26;;;;;;;30.43;17.67;;;;;;;0.73;76.20;101650.66;5074017;28;20661;-55
2022/12/20 05:33:53;;;;;;;24.50;17.10;;;;;;;0.72;76.16;101653.94;5074190;28;20187;-55
2022/12/20 05:36:20;;;;;;;32.57;20.63;;;;;;;0.70;76.35;101650.38;5073923;28;20202;-55
2022/12/20 05:38:47;;;;;;;35.40;22.63;;;;;;;0.62;76.09;101643.75;5074150;28;20602;-55
2022/12/20 05:41:13;;;;;;;37.23;27.93;;;;;;;0.62;76.52;101645.38;5073891;28;20237;-55
2022/12/20 05:43:41;;;;;;;41.07;29.40;;;;;;;0.59;76.30;101651.06;5066013;28;20562;-55
2022/12/20 05:46:08;;;;;;;35.47;23.10;;;;;;;0.55;76.38;101646.47;5053394;28;20199;-56
2022/12/20 05:48:36;;;;;;;33.37;21.20;;;;;;;0.59;77.29;101641.84;5053658;28;20511;-55
2022/12/20 05:51:03;;;;;;;35.17;22.57;;;;;;;0.68;76.99;101638.34;5053158;28;20203;-55
2022/12/20 05:53:30;;;;;;;39.20;25.13;;;;;;;0.73;77.07;101643.06;5053422;28;20184;-55
2022/12/20 05:55:57;;;;;;;39.30;25.30;;;;;;;0.76;76.43;101650.94;5053606;28;20188;-54
2022/12/20 05:58:24;;;;;;;32.47;22.30;;;;;;;0.49;77.12;101613.06;5071211;28;20638;-55
2022/12/20 06:00:50;;;;;;;38.00;27.58;;;;;;;0.72;76.58;101646.34;5072452;28;20433;-56
2022/12/20 06:03:17;;;;;;;42.23;27.00;;;;;;;0.85;76.78;101646.66;5073309;28;20192;-56
2022/12/20 06:05:46;;;;;;;41.33;24.83;;;;;;;0.86;77.04;101648.47;5073628;28;20191;-55
2022/12/20 06:08:13;;;;;;;33.57;23.07;;;;;;;0.89;76.79;101642.78;5072964;28;20218;-55
2022/12/20 06:10:41;;;;;;;30.93;20.37;;;;;;;0.77;75.97;101618.94;5073226;28;20180;-55
2022/12/20 06:13:09;;;;;;;31.47;20.27;;;;;;;0.85;75.61;101643.28;5072997;28;20661;-55
2022/12/20 06:15:37;;;;;;;30.27;20.67;;;;;;;0.96;75.77;101652.72;5072828;28;20523;-56
2022/12/20 06:18:04;;;;;;;35.57;20.93;;;;;;;1.02;76.19;101660.81;5072485;28;20283;-56
2022/12/20 06:20:32;;;;;;;31.63;20.77;;;;;;;0.97;76.25;101646.88;5071849;28;20275;-55
2022/12/20 06:23:00;;;;;;;44.80;27.47;;;;;;;0.96;76.86;101653.56;5072772;28;20562;-55
2022/12/20 06:25:27;;;;;;;41.30;25.73;;;;;;;0.99;77.05;101655.50;5072445;28;20187;-55
2022/12/20 06:27:54;;;;;;;47.60;26.23;;;;;;;1.08;77.64;101657.19;5072956;28;20227;-55
2022/12/20 06:30:22;;;;;;;40.93;24.30;;;;;;;1.08;78.02;101630.97;5072831;28;20202;-56
2022/12/20 06:32:49;;;;;;;41.27;23.53;;;;;;;1.23;77.98;101652.59;5072905;28;20326;-55
2022/12/20 06:35:16;;;;;;;36.43;22.73;;;;;;;1.21;78.43;101643.94;5072945;28;20188;-55
2022/12/20 06:37:43;;;;;;;36.97;22.33;;;;;;;1.13;78.71;101624.69;5072375;28;20707;-56
2022/12/20 06:40:13;;;;;;;45.33;21.93;;;;;;;1.12;78.73;101651.66;5072490;28;20187;-55
2022/12/20 06:42:40;;;;;;;42.00;22.67;;;;;;;1.16;79.59;101651.16;5072596;28;20180;-56
2022/12/20 06:45:08;;;;;;;35.27;23.27;;;;;;;1.19;79.01;101650.53;5072900;28;20191;-56
2022/12/20 06:47:35;;;;;;;36.10;22.30;;;;;;;1.35;79.11;101638.44;5071886;28;20685;-55
2022/12/20 06:50:02;;;;;;;39.10;22.37;;;;;;;1.54;78.20;101646.88;5071475;28;20583;-56
2022/12/20 06:52:28;;;;;;;34.93;22.47;;;;;;;2.16;76.86;101646.25;5069569;28;20188;-56
2022/12/20 06:54:55;;;;;;;34.40;22.93;;;;;;;2.49;74.03;101635.47;5070952;28;20199;-55
2022/12/20 06:57:23;;;;;;;35.90;22.57;;;;;;;2.58;72.67;101639.69;5072123;28;20183;-56
2022/12/20 06:59:50;;;;;;;33.37;22.20;;;;;;;2.58;71.91;101643.84;5072185;28;20194;-55
2022/12/20 07:02:17;;;;;;;32.53;20.27;;;;;;;2.43;71.95;101653.63;5072122;28;20469;-55
2022/12/20 07:04:44;;;;;;;31.47;21.67;;;;;;;2.29;71.61;101642.34;5071698;28;20187;-55
2022/12/20 07:07:12;;;;;;;29.80;20.07;;;;;;;2.17;73.07;101650.59;5072065;28;20303;-56
2022/12/20 07:09:40;;;;;;;28.57;18.00;;;;;;;2.02;72.27;101645.09;5072197;28;20183;-55
2022/12/20 07:12:07;;;;;;;33.47;20.70;;;;;;;1.93;72.57;101648.50;5071977;28;20253;-55
2022/12/20 07:14:36;;;;;;;34.73;20.73;;;;;;;1.91;72.63;101643.31;5071964;28;20179;-55
2022/12/20 07:17:03;;;;;;;33.23;19.43;;;;;;;1.88;72.25;101637.09;5070975;28;20184;-55
2022/12/20 07:19:30;;;;;;;31.57;22.20;;;;;;;1.87;72.53;101641.25;5071185;28;21012;-57
2022/12/20 07:21:56;;;;;;;27.13;19.73;;;;;;;1.84;72.03;101640.13;5070173;28;20594;-57
2022/12/20 07:24:23;;;;;;;32.50;19.40;;;;;;;1.92;72.05;101644.19;5066542;28;20180;-55
2022/12/20 07:26:50;;;;;;;26.60;17.20;;;;;;;1.99;70.84;101647.38;5070898;28;20581;-56
2022/12/20 07:29:17;;;;;;;24.87;17.50;;;;;;;2.02;69.65;101640.03;5055066;28;20189;-55
2022/12/20 07:31:45;;;;;;;23.07;16.47;;;;;;;2.00;68.16;101648.28;5060152;28;20191;-56
2022/12/20 07:34:12;;;;;;;26.23;17.37;;;;;;;2.01;68.57;101644.97;5066843;28;20600;-55
2022/12/20 07:36:39;;;;;;;23.23;16.30;;;;;;;2.02;68.73;101641.69;5071532;28;20534;-55
2022/12/20 07:39:06;;;;;;;25.17;17.90;;;;;;;1.91;68.58;101604.41;5070985;28;20180;-55
2022/12/20 07:41:32;;;;;;;24.87;16.50;;;;;;;2.06;67.61;101625.97;5071983;28;20187;-55
2022/12/20 07:43:59;;;;;;;30.70;17.33;;;;;;;2.11;67.77;101627.25;5071484;28;20202;-55
2022/12/20 07:46:27;;;;;;;28.30;16.97;;;;;;;2.13;68.43;101613.94;5071460;28;20190;-55
2022/12/20 07:48:55;;;;;;;23.77;16.17;;;;;;;2.08;67.73;101614.31;5071324;28;20211;-55
2022/12/20 07:51:26;;;;;;;26.97;16.10;;;;;;;2.11;67.34;101618.00;5071804;28;20183;-55
2022/12/20 07:54:01;;;;;;;24.77;17.63;;;;;;;2.12;67.59;101613.78;5058389;28;20248;-55
2022/12/20 07:56:30;;;;;;;25.00;17.97;;;;;;;2.16;67.99;101611.66;5072390;28;20397;-56
2022/12/20 07:58:59;;;;;;;27.27;17.87;;;;;;;2.24;68.42;101617.34;5071494;28;20195;-55
2022/12/20 08:01:27;;;;;;;24.20;16.93;;;;;;;2.26;67.90;101615.81;5071412;28;20237;-55
2022/12/20 08:04:00;;;;;;;25.83;18.60;;;;;;;1.74;67.73;101519.34;5071352;28;20244;-55
2022/12/20 08:06:27;;;;;;;35.67;16.87;;;;;;;2.33;67.95;101603.75;5071678;28;20260;-56
2022/12/20 08:08:58;;;;;;;27.37;19.13;;;;;;;2.21;67.22;101579.06;5069556;28;20211;-57
2022/12/20 08:11:27;;;;;;;28.57;18.10;;;;;;;2.43;67.14;101605.41;5071529;28;20184;-56
2022/12/20 08:13:54;;;;;;;27.07;18.13;;;;;;;2.51;66.55;101599.31;5071451;28;20191;-56
2022/12/20 08:16:21;;;;;;;27.30;16.70;;;;;;;2.57;66.15;101597.28;5071310;28;20237;-56
2022/12/20 08:18:48;;;;;;;24.37;17.23;;;;;;;2.57;66.67;101596.41;5071506;28;20192;-56
2022/12/20 08:21:16;;;;;;;24.00;17.47;;;;;;;2.68;66.76;101595.63;5070869;28;20188;-54
2022/12/20 08:23:43;;;;;;;31.23;18.63;;;;;;;2.71;65.91;101589.16;5071010;28;20195;-55
2022/12/20 08:26:10;;;;;;;23.83;17.07;;;;;;;2.77;66.42;101584.56;5071252;28;20673;-55
2022/12/20 08:28:37;;;;;;;30.20;18.90;;;;;;;2.89;66.19;101584.63;5071451;28;20220;-55
2022/12/20 08:31:06;;;;;;;24.40;18.13;;;;;;;2.92;65.09;101588.31;5071079;28;20192;-56
2022/12/20 08:33:34;;;;;;;23.20;17.10;;;;;;;3.03;65.04;101590.81;5071134;28;20275;-56
2022/12/20 08:36:02;;;;;;;23.40;16.80;;;;;;;2.94;63.94;101586.78;5069766;28;20184;-56
2022/12/20 08:38:31;;;;;;;31.43;17.73;;;;;;;2.80;64.49;101573.78;5064733;28;20269;-56
2022/12/20 08:41:02;;;;;;;24.40;16.87;;;;;;;2.95;64.89;101574.97;5070005;28;20191;-56
2022/12/20 08:43:30;;;;;;;26.40;18.43;;;;;;;3.01;64.35;101575.47;5071102;28;20199;-56
2022/12/20 08:45:56;;;;;;;29.95;21.35;;;;;;;3.10;64.50;101567.69;5071393;28;20566;-56
2022/12/20 08:48:23;;;;;;;32.33;20.03;;;;;;;3.13;64.62;101568.78;5068915;28;20211;-57
2022/12/20 08:50:54;;;;;;;27.17;17.30;;;;;;;3.24;62.58;101562.03;5073966;28;20616;-56
2022/12/20 08:53:21;;;;;;;28.40;18.30;;;;;;;3.08;63.86;101529.47;5074102;28;20195;-57
2022/12/20 08:55:49;;;;;;;26.37;17.57;;;;;;;3.32;63.84;101559.34;5067936;28;20181;-56
2022/12/20 08:58:16;;;;;;;29.67;17.60;;;;;;;3.37;63.88;101554.59;5071014;28;20193;-56
2022/12/20 09:00:43;;;;;;;26.97;19.80;;;;;;;3.38;64.35;101547.09;5071569;28;20187;-56
2022/12/20 09:03:12;;;;;;;27.17;18.77;;;;;;;3.39;64.44;101545.44;5071382;28;20585;-57
2022/12/20 09:05:44;;;;;;;27.83;19.33;;;;;;;3.36;63.93;101537.56;5072330;28;20231;-56
2022/12/20 09:08:11;;;;;;;25.47;18.30;;;;;;;3.43;63.18;101535.63;5074301;28;20302;-55
2022/12/20 09:10:38;;;;;;;26.27;18.27;;;;;;;3.53;63.28;101529.59;5074248;28;20245;-56
2022/12/20 09:13:06;;;;;;;26.20;18.63;;;;;;;3.53;63.54;101532.13;5064909;28;20188;-58
2022/12/20 09:15:34;;;;;;;23.07;17.40;;;;;;;3.49;62.80;101527.56;5053745;28;20555;-55
2022/12/20 09:18:01;;;;;;;25.50;17.63;;;;;;;3.52;62.91;101525.28;5060418;28;20194;-56
2022/12/20 09:20:28;;;;;;;25.30;18.17;;;;;;;3.55;63.30;101525.50;5070961;28;20744;-56
2022/12/20 09:22:55;;;;;;;29.00;18.47;;;;;;;3.57;63.75;101513.81;5067499;28;20191;-56
2022/12/20 09:25:23;;;;;;;29.50;19.27;;;;;;;3.70;63.49;101511.44;5054565;28;20269;-56
2022/12/20 09:27:50;;;;;;;24.10;18.03;;;;;;;3.75;63.77;101510.13;5054198;28;20274;-56
2022/12/20 09:30:18;;;;;;;23.60;16.50;;;;;;;3.71;62.16;101500.47;5053872;28;20543;-57
2022/12/20 09:32:45;;;;;;;22.07;14.63;;;;;;;3.70;61.23;101505.47;5064139;28;20202;-56
2022/12/20 09:35:12;;;;;;;24.83;16.87;;;;;;;3.72;61.56;101502.25;5053426;28;20191;-56
2022/12/20 09:37:40;;;;;;;24.40;15.17;;;;;;;3.81;61.51;101499.53;5053620;28;20240;-56
2022/12/20 09:40:14;;;;;;;27.00;19.47;;;;;;;3.91;62.37;101477.44;5053027;28;20432;-56
2022/12/20 09:42:41;;;;;;;27.63;16.43;;;;;;;3.99;61.48;101478.88;5054036;28;20284;-56
2022/12/20 09:45:16;;;;;;;24.23;16.07;;;;;;;4.05;60.13;101481.00;5072105;28;20674;-56
2022/12/20 09:47:45;;;;;;;22.63;14.30;;;;;;;4.10;58.98;101483.09;5073783;28;20215;-57
2022/12/20 09:50:16;;;;;;;22.13;14.70;;;;;;;4.16;58.93;101481.03;5070297;28;20329;-57
2022/12/20 09:52:55;;;;;;;16.00;11.70;;;;;;;4.23;57.85;101469.59;5071188;28;20623;-57
2022/12/20 09:55:31;;;;;;;24.60;14.47;;;;;;;4.27;58.49;101460.56;5071259;28;20181;-56
2022/12/20 09:58:14;;;;;;;21.00;16.08;;;;;;;4.39;58.97;101461.44;5070804;28;20445;-56
2022/12/20 10:00:46;;;;;;;18.40;13.63;;;;;;;4.14;59.26;101443.53;5071956;28;20194;-56
2022/12/20 10:03:20;;;;;;;20.80;14.50;;;;;;;4.35;57.85;101451.81;5071490;28;20241;-57
2022/12/20 10:05:51;;;;;;;18.73;11.93;;;;;;;4.40;57.68;101441.19;5072252;28;20196;-56
2022/12/20 10:08:31;;;;;;;15.93;10.80;;;;;;;4.32;55.76;101439.75;5072336;28;20299;-57
2022/12/20 10:11:03;;;;;;;17.77;11.93;;;;;;;4.42;56.43;101439.63;5072151;28;20184;-57
2022/12/20 10:13:42;;;;;;;16.33;11.30;;;;;;;4.54;56.74;101439.63;5072040;28;20183;-57
2022/12/20 10:16:24;;;;;;;20.73;13.40;;;;;;;4.45;56.40;101405.91;5071961;28;20191;-57
2022/12/20 10:19:05;;;;;;;21.13;14.70;;;;;;;4.65;57.04;101428.53;5072282;28;20193;-56
2022/12/20 10:21:45;;;;;;;20.67;13.70;;;;;;;4.68;57.00;101426.22;5072788;28;20185;-56
2022/12/20 10:24:18;;;;;;;24.17;13.43;;;;;;;4.66;56.98;101423.56;5073206;28;20183;-56
2022/12/20 10:26:46;;;;;;;19.53;11.87;;;;;;;4.73;56.48;101420.66;5073252;28;20271;-56
2022/12/20 10:29:13;;;;;;;19.27;13.27;;;;;;;4.40;57.27;101407.22;5072228;28;20677;-56
2022/12/20 10:31:40;;;;;;;19.40;13.50;;;;;;;4.52;57.68;101403.00;5072645;28;20186;-56
2022/12/20 10:34:08;;;;;;;23.63;13.20;;;;;;;4.54;56.59;101398.91;5072225;28;20188;-56
2022/12/20 10:36:37;;;;;;;19.23;13.27;;;;;;;4.63;56.23;101394.47;5072434;28;20190;-56
2022/12/20 10:39:06;;;;;;;19.53;12.80;;;;;;;4.70;56.90;101392.44;5072327;28;20189;-56
2022/12/20 10:41:47;;;;;;;21.40;14.77;;;;;;;4.73;57.30;101390.09;5072335;28;20185;-56
2022/12/20 10:44:20;;;;;;;19.83;13.83;;;;;;;4.63;57.11;101352.06;5072292;28;20639;-55
2022/12/20 10:46:50;;;;;;;20.23;12.53;;;;;;;4.74;57.30;101368.97;5072532;28;20195;-56
2022/12/20 10:49:30;;;;;;;21.23;14.43;;;;;;;4.83;56.96;101360.19;5072402;28;20228;-55
2022/12/20 10:52:00;;;;;;;22.93;14.93;;;;;;;4.93;57.33;101355.84;5072701;28;20194;-55
2022/12/20 10:54:30;;;;;;;17.30;13.67;;;;;;;4.89;55.90;101364.03;5072349;28;20190;-55
2022/12/20 10:56:59;;;;;;;19.70;13.90;;;;;;;4.93;55.93;101357.50;5072296;28;20589;-55
2022/12/20 10:59:33;;;;;;;27.93;14.33;;;;;;;4.95;55.56;101361.91;5072273;28;20199;-56
2022/12/20 11:02:00;;;;;;;21.27;13.57;;;;;;;4.98;55.58;101345.94;5072211;28;20603;-57
2022/12/20 11:04:30;;;;;;;18.80;13.40;;;;;;;5.06;55.35;101338.03;5071914;28;20191;-56
2022/12/20 11:06:57;;;;;;;22.97;14.37;;;;;;;5.08;54.19;101340.72;5071586;28;20274;-55
2022/12/20 11:09:29;;;;;;;18.57;12.83;;;;;;;5.01;54.74;101329.22;5071889;28;20212;-56
2022/12/20 11:12:06;;;;;;;23.42;14.48;;;;;;;5.09;54.33;101327.16;5071977;28;20526;-55
2022/12/20 11:14:35;;;;;;;19.67;13.77;;;;;;;5.22;53.83;101324.66;5072074;28;20242;-56
2022/12/20 11:17:07;;;;;;;19.77;14.07;;;;;;;5.36;53.59;101313.72;5071519;28;20641;-55
2022/12/20 11:20:03;;;;;;;20.23;13.50;;;;;;;5.33;53.66;101308.41;5071991;28;20276;-56
2022/12/20 11:22:41;;;;;;;16.90;12.67;;;;;;;5.39;52.75;101303.72;5058553;28;20216;-56
2022/12/20 11:25:28;;;;;;;22.70;14.10;;;;;;;5.26;53.43;101302.03;5072007;28;20184;-56
2022/12/20 11:28:12;;;;;;;22.93;13.73;;;;;;;5.35;54.06;101294.13;5071379;28;20218;-56
2022/12/20 11:30:49;;;;;;;17.87;12.60;;;;;;;5.49;52.78;101285.72;5072109;28;20184;-55
2022/12/20 11:33:43;;;;;;;19.93;13.43;;;;;;;5.45;52.69;101257.34;5072017;28;20183;-55
2022/12/20 11:36:21;;;;;;;21.57;15.33;;;;;;;5.66;52.12;101274.91;5068567;28;20185;-56